createdAt,value
2023-04-29T00:03:29.900Z,22.12
2023-04-29T00:06:34.645Z,21.46
2023-04-29T00:09:39.523Z,22.08
2023-04-29T00:12:46.971Z,22.14
2023-04-29T00:15:51.669Z,21.81
2023-04-29T00:18:55.842Z,22.03
2023-04-29T00:22:02.402Z,22.50
2023-04-29T00:25:08.201Z,23.05
2023-04-29T00:28:15.018Z,22.50
2023-04-29T00:31:19.499Z,22.09
2023-04-29T00:34:24.880Z,22.04
2023-04-29T00:37:28.704Z,21.27
2023-04-29T00:40:33.038Z,20.98
2023-04-29T00:43:37.922Z,19.87
2023-04-29T00:46:45.320Z,20.29
2023-04-29T00:49:50.143Z,19.28
2023-04-29T00:52:55.066Z,19.95
2023-04-29T00:56:03.822Z,20.81
2023-04-29T00:59:11.030Z,21.66
2023-04-29T01:02:18.385Z,21.78
2023-04-29T01:05:22.763Z,22.33
2023-04-29T01:08:28.002Z,22.22
2023-04-29T01:11:48.008Z,21.82
2023-04-29T01:15:05.674Z,22.78
2023-04-29T01:18:36.246Z,23.32
2023-04-29T01:21:59.417Z,22.87
2023-04-29T01:25:04.026Z,22.94
2023-04-29T01:28:32.194Z,23.17
2023-04-29T01:31:56.891Z,22.20
2023-04-29T01:35:12.129Z,21.94
2023-04-29T01:38:47.194Z,21.24
2023-04-29T01:42:39.930Z,23.53
2023-04-29T01:45:49.034Z,23.29
2023-04-29T01:48:58.455Z,23.30
2023-04-29T01:52:03.297Z,22.76
2023-04-29T01:55:11.905Z,23.04
2023-04-29T01:58:24.811Z,21.69
2023-04-29T02:01:46.595Z,21.74
2023-04-29T02:12:48.121Z,18.84
2023-04-29T02:16:16.135Z,18.69
2023-04-29T02:19:41.384Z,19.93
2023-04-29T02:22:45.927Z,20.91
2023-04-29T02:25:53.643Z,20.87
2023-04-29T02:29:06.965Z,21.10
2023-04-29T02:32:12.971Z,21.67
2023-04-29T02:35:18.451Z,21.64
2023-04-29T02:38:25.235Z,21.28
2023-04-29T02:41:29.983Z,21.25
2023-04-29T02:44:34.544Z,21.18
2023-04-29T02:47:41.826Z,21.32
2023-04-29T02:50:46.070Z,21.40
2023-04-29T02:53:52.082Z,20.53
2023-04-29T02:56:56.887Z,21.08
2023-04-29T03:00:01.782Z,20.78
2023-04-29T03:03:10.561Z,20.48
2023-04-29T03:06:17.625Z,20.22
2023-04-29T03:09:25.026Z,20.28
2023-04-29T03:12:29.614Z,20.36
2023-04-29T03:15:34.137Z,20.79
2023-04-29T03:18:42.358Z,20.50
2023-04-29T03:21:47.008Z,20.29
2023-04-29T03:24:53.729Z,20.19
2023-04-29T03:28:00.880Z,19.80
2023-04-29T03:31:05.821Z,20.19
2023-04-29T03:34:11.444Z,19.59
2023-04-29T03:37:23.803Z,19.64
2023-04-29T03:40:39.932Z,19.49
2023-04-29T03:43:45.085Z,19.63
2023-04-29T03:46:49.498Z,18.93
2023-04-29T03:49:57.205Z,19.09
2023-04-29T03:53:06.893Z,19.40
2023-04-29T03:56:17.542Z,19.57
2023-04-29T03:59:25.498Z,18.94
2023-04-29T04:02:30.409Z,18.33
2023-04-29T04:05:37.545Z,18.52
2023-04-29T04:08:48.554Z,19.14
2023-04-29T04:12:01.805Z,19.36
2023-04-29T04:15:06.852Z,19.18
2023-04-29T04:18:17.105Z,18.94
2023-04-29T04:21:24.220Z,19.55
2023-04-29T04:24:42.458Z,19.64
2023-04-29T04:27:49.542Z,19.86
2023-04-29T04:31:19.018Z,19.85
2023-04-29T04:34:23.317Z,20.18
2023-04-29T04:37:32.773Z,20.17
2023-04-29T04:40:46.938Z,20.15
2023-04-29T04:44:13.235Z,20.00
2023-04-29T04:47:33.459Z,19.79
2023-04-29T04:50:42.833Z,20.18
2023-04-29T04:53:47.458Z,19.95
2023-04-29T04:57:00.191Z,19.73
2023-04-29T05:00:05.725Z,19.73
2023-04-29T05:03:12.640Z,19.40
2023-04-29T05:06:16.958Z,19.67
2023-04-29T05:09:24.335Z,19.65
2023-04-29T05:12:36.122Z,19.77
2023-04-29T05:15:41.435Z,19.53
2023-04-29T05:18:47.437Z,19.73
2023-04-29T05:21:54.805Z,19.70
2023-04-29T05:25:04.024Z,19.59
2023-04-29T05:28:11.465Z,19.58
2023-04-29T05:31:18.837Z,19.44
2023-04-29T05:34:23.251Z,19.31
2023-04-29T05:37:37.664Z,19.38
2023-04-29T05:41:10.654Z,19.25
2023-04-29T05:44:34.520Z,19.08
2023-04-29T05:47:39.219Z,19.42
2023-04-29T05:50:50.487Z,19.29
2023-04-29T05:54:01.152Z,19.08
2023-04-29T05:57:10.753Z,18.82
2023-04-29T06:00:21.669Z,19.34
2023-04-29T06:03:26.275Z,19.28
2023-04-29T06:06:50.802Z,19.07
2023-04-29T06:09:59.996Z,19.01
2023-04-29T06:13:08.491Z,18.84
2023-04-29T06:16:14.305Z,18.70
2023-04-29T06:19:21.947Z,18.72
2023-04-29T06:22:31.520Z,18.94
2023-04-29T06:25:38.633Z,18.67
2023-04-29T06:28:44.688Z,18.87
2023-04-29T06:31:49.770Z,18.86
2023-04-29T06:34:54.116Z,19.26
2023-04-29T06:38:24.833Z,19.29
2023-04-29T06:41:37.882Z,19.37
2023-04-29T06:45:02.396Z,18.99
2023-04-29T06:48:19.824Z,19.09
2023-04-29T06:51:30.991Z,19.06
2023-04-29T06:54:43.269Z,19.14
2023-04-29T06:57:50.669Z,19.31
2023-04-29T07:00:54.745Z,18.89
2023-04-29T07:04:05.041Z,18.91
2023-04-29T07:07:14.259Z,18.87
2023-04-29T07:10:19.690Z,19.02
2023-04-29T07:13:27.694Z,18.98
2023-04-29T07:16:41.895Z,18.81
2023-04-29T07:23:37.494Z,18.54
2023-04-29T07:26:44.240Z,18.38
2023-04-29T07:29:51.089Z,18.49
2023-04-29T07:32:55.896Z,18.66
2023-04-29T07:36:08.023Z,18.57
2023-04-29T07:39:19.177Z,18.34
2023-04-29T07:42:26.627Z,18.48
2023-04-29T07:45:32.816Z,18.38
2023-04-29T07:48:43.735Z,18.27
2023-04-29T07:51:55.628Z,18.31
2023-04-29T07:55:04.977Z,18.06
2023-04-29T07:58:09.414Z,18.27
2023-04-29T08:01:18.248Z,18.16
2023-04-29T08:04:23.566Z,18.06
2023-04-29T08:07:52.139Z,18.15
2023-04-29T08:10:57.932Z,18.19
2023-04-29T08:14:02.519Z,18.21
2023-04-29T08:17:08.349Z,17.97
2023-04-29T08:20:16.074Z,18.00
2023-04-29T08:30:39.746Z,18.05
2023-04-29T08:33:44.410Z,18.05
2023-04-29T08:36:48.978Z,17.76
2023-04-29T08:40:13.005Z,17.82
2023-04-29T08:43:18.850Z,17.85
2023-04-29T08:46:27.195Z,17.80
2023-04-29T08:49:35.061Z,17.78
2023-04-29T08:52:39.217Z,17.46
2023-04-29T08:55:47.666Z,17.48
2023-04-29T08:58:56.257Z,17.47
2023-04-29T09:02:01.343Z,17.48
2023-04-29T09:05:10.423Z,17.30
2023-04-29T09:08:15.081Z,17.14
2023-04-29T09:11:20.687Z,17.05
2023-04-29T09:14:25.361Z,16.81
2023-04-29T09:17:50.100Z,16.74
2023-04-29T09:20:55.195Z,16.84
2023-04-29T09:24:02.459Z,16.80
2023-04-29T09:27:07.528Z,16.63
2023-04-29T09:30:19.107Z,16.53
2023-04-29T09:33:30.709Z,16.23
2023-04-29T09:36:54.006Z,16.43
2023-04-29T09:40:00.531Z,16.19
2023-04-29T09:43:07.364Z,15.94
2023-04-29T09:46:17.807Z,16.09
2023-04-29T09:49:30.827Z,16.18
2023-04-29T09:52:43.126Z,16.04
2023-04-29T09:56:10.966Z,15.78
2023-04-29T09:59:15.873Z,15.86
2023-04-29T10:02:20.751Z,15.87
2023-04-29T10:05:31.122Z,15.67
2023-04-29T10:08:36.279Z,15.69
2023-04-29T10:11:45.163Z,15.65
2023-04-29T10:15:06.872Z,15.34
2023-04-29T10:18:35.369Z,15.55
2023-04-29T10:21:39.992Z,15.43
2023-04-29T10:24:45.413Z,15.32
2023-04-29T10:27:51.301Z,15.16
2023-04-29T10:30:57.420Z,15.28
2023-04-29T10:34:04.421Z,15.27
2023-04-29T10:37:12.276Z,15.22
2023-04-29T10:40:19.461Z,15.15
2023-04-29T10:43:28.159Z,15.32
2023-04-29T10:46:32.783Z,15.47
2023-04-29T10:49:37.686Z,15.17
2023-04-29T10:52:54.039Z,15.14
2023-04-29T10:56:06.682Z,15.54
2023-04-29T10:59:18.597Z,15.51
2023-04-29T11:02:28.259Z,15.41
2023-04-29T11:05:39.448Z,14.92
2023-04-29T11:08:44.516Z,14.84
2023-04-29T11:12:04.090Z,15.13
2023-04-29T11:15:12.003Z,15.01
2023-04-29T11:18:16.872Z,14.88
2023-04-29T11:21:21.862Z,14.66
2023-04-29T11:24:26.784Z,14.68
2023-04-29T11:27:36.480Z,14.69
2023-04-29T11:30:41.840Z,14.68
2023-04-29T11:33:48.490Z,14.67
2023-04-29T11:36:55.292Z,14.62
2023-04-29T11:40:04.702Z,14.49
2023-04-29T11:43:10.509Z,14.29
2023-04-29T11:46:15.964Z,14.18
2023-04-29T11:49:21.082Z,14.26
2023-04-29T11:52:25.899Z,14.17
2023-04-29T11:55:30.655Z,14.24
2023-04-29T11:58:37.815Z,14.32
2023-04-29T12:01:43.739Z,14.36
2023-04-29T12:04:50.500Z,14.07
2023-04-29T12:07:58.364Z,13.92
2023-04-29T12:11:03.086Z,13.93
2023-04-29T12:14:11.107Z,13.87
2023-04-29T12:17:19.951Z,13.45
2023-04-29T12:20:25.221Z,13.72
2023-04-29T12:23:32.836Z,13.66
2023-04-29T12:26:39.889Z,13.70
2023-04-29T12:29:44.304Z,13.78
2023-04-29T12:32:49.953Z,13.58
2023-04-29T12:35:57.254Z,13.63
2023-04-29T12:39:02.190Z,13.82
2023-04-29T12:42:07.803Z,13.64
2023-04-29T12:45:29.781Z,13.48
2023-04-29T12:48:35.829Z,13.50
2023-04-29T12:51:40.732Z,13.44
2023-04-29T12:54:45.480Z,13.32
2023-04-29T12:57:50.265Z,13.35
2023-04-29T13:00:54.431Z,13.28
2023-04-29T13:04:00.434Z,13.08
2023-04-29T13:07:05.907Z,13.27
2023-04-29T13:10:13.348Z,13.06
2023-04-29T13:13:17.610Z,13.08
2023-04-29T13:16:22.095Z,13.00
2023-04-29T13:19:43.453Z,13.07
2023-04-29T13:22:58.412Z,13.13
2023-04-29T13:26:03.087Z,12.92
2023-04-29T13:29:10.071Z,13.02
2023-04-29T13:32:18.107Z,12.87
2023-04-29T13:35:23.111Z,12.94
2023-04-29T13:41:36.423Z,12.94
2023-04-29T13:44:52.649Z,12.98
2023-04-29T13:48:08.478Z,12.95
2023-04-29T13:51:52.584Z,12.90
2023-04-29T13:58:39.893Z,12.92
2023-04-29T14:02:08.080Z,12.78
2023-04-29T14:04:42.801Z,12.72
2023-04-29T14:07:48.450Z,12.83
2023-04-29T14:10:53.017Z,12.65
2023-04-29T14:13:57.489Z,12.66
2023-04-29T14:17:02.407Z,12.74
2023-04-29T14:20:10.342Z,12.71
2023-04-29T14:23:15.318Z,12.60
2023-04-29T14:29:26.793Z,12.48
2023-04-29T14:32:31.046Z,12.65
2023-04-29T14:35:35.615Z,12.64
2023-04-29T14:38:40.293Z,12.10
2023-04-29T14:41:45.129Z,12.29
2023-04-29T14:44:55.267Z,12.13
2023-04-29T14:48:00.405Z,11.95
2023-04-29T14:51:10.183Z,11.93
2023-04-29T14:54:14.776Z,11.82
2023-04-29T14:57:19.725Z,11.71
2023-04-29T15:00:26.940Z,10.84
2023-04-29T15:03:31.602Z,11.37
2023-04-29T15:06:36.639Z,11.31
2023-04-29T15:09:44.036Z,11.27
2023-04-29T15:12:48.214Z,11.32
2023-04-29T15:15:52.934Z,11.31
2023-04-29T15:18:57.041Z,11.23
2023-04-29T15:22:04.100Z,11.22
2023-04-29T15:25:12.404Z,11.19
2023-04-29T15:28:19.290Z,11.12
2023-04-29T15:31:25.100Z,11.03
2023-04-29T15:34:32.873Z,10.73
2023-04-29T15:37:37.884Z,10.67
2023-04-29T15:40:42.250Z,10.49
2023-04-29T15:43:46.621Z,10.37
2023-04-29T15:46:51.192Z,10.48
2023-04-29T15:49:56.913Z,10.27
2023-04-29T15:53:01.465Z,10.07
2023-04-29T15:56:06.687Z,10.30
2023-04-29T15:59:11.516Z,10.40
2023-04-29T16:02:16.221Z,10.28
2023-04-29T16:05:21.230Z,10.10
2023-04-29T16:08:25.941Z,9.68
2023-04-29T16:11:30.688Z,9.54
2023-04-29T16:14:35.330Z,9.90
2023-04-29T16:17:40.048Z,9.91
2023-04-29T16:20:45.919Z,9.66
2023-04-29T16:23:51.879Z,9.14
2023-04-29T16:27:00.197Z,9.02
2023-04-29T16:30:05.034Z,9.11
2023-04-29T16:33:09.334Z,8.87
2023-04-29T16:36:14.476Z,8.79
2023-04-29T16:39:18.869Z,9.26
2023-04-29T16:42:23.626Z,8.75
2023-04-29T16:45:31.420Z,9.08
2023-04-29T16:48:35.876Z,8.66
2023-04-29T16:51:40.056Z,8.50
2023-04-29T16:54:44.780Z,8.74
2023-04-29T16:57:49.366Z,8.91
2023-04-29T17:00:58.073Z,8.64
2023-04-29T17:04:09.959Z,8.79
2023-04-29T17:07:23.063Z,8.48
2023-04-29T17:10:29.475Z,8.46
2023-04-29T17:13:34.077Z,8.67
2023-04-29T17:16:38.607Z,8.71
2023-04-29T17:19:43.140Z,8.77
2023-04-29T17:22:52.045Z,8.47
2023-04-29T17:25:57.968Z,8.24
2023-04-29T17:29:01.561Z,8.01
2023-04-29T17:32:13.451Z,8.16
2023-04-29T17:35:17.809Z,8.34
2023-04-29T17:38:22.340Z,8.19
2023-04-29T17:41:26.738Z,7.85
2023-04-29T17:44:31.373Z,8.00
2023-04-29T17:47:38.235Z,8.08
2023-04-29T17:50:42.907Z,8.31
2023-04-29T17:53:47.567Z,8.07
2023-04-29T17:56:52.244Z,7.93
2023-04-29T17:59:57.114Z,7.85
2023-04-29T18:03:06.731Z,7.72
2023-04-29T18:06:11.230Z,7.88
2023-04-29T18:09:16.092Z,7.76
2023-04-29T18:12:20.817Z,7.68
2023-04-29T18:15:27.953Z,7.76
2023-04-29T18:18:32.668Z,7.86
2023-04-29T18:21:36.888Z,7.62
2023-04-29T18:24:45.337Z,7.14
2023-04-29T18:27:59.803Z,7.16
2023-04-29T18:31:19.209Z,7.25
2023-04-29T18:34:23.821Z,7.13
2023-04-29T18:37:30.576Z,7.12
2023-04-29T18:40:37.982Z,7.36
2023-04-29T18:43:42.517Z,6.95
2023-04-29T18:46:47.198Z,7.05
2023-04-29T18:49:51.871Z,6.64
2023-04-29T18:52:59.582Z,6.67
2023-04-29T18:56:04.258Z,6.42
2023-04-29T18:59:10.462Z,6.56
2023-04-29T19:02:18.096Z,6.56
2023-04-29T19:05:25.824Z,6.63
2023-04-29T19:08:32.202Z,6.48
2023-04-29T19:11:41.633Z,6.50
2023-04-29T19:14:46.381Z,6.47
2023-04-29T19:17:51.405Z,6.37
2023-04-29T19:20:56.906Z,6.63
2023-04-29T19:24:01.516Z,6.16
2023-04-29T19:27:07.086Z,6.01
2023-04-29T19:30:11.839Z,6.01
2023-04-29T19:33:16.107Z,6.13
2023-04-29T19:36:20.862Z,6.49
2023-04-29T19:39:27.467Z,6.29
2023-04-29T19:42:34.839Z,6.16
2023-04-29T19:45:38.839Z,6.29
2023-04-29T19:48:43.911Z,6.42
2023-04-29T19:51:48.716Z,5.94
2023-04-29T19:54:53.033Z,5.78
2023-04-29T19:57:57.609Z,6.30
2023-04-29T20:01:02.110Z,6.28
2023-04-29T20:04:06.687Z,5.96
2023-04-29T20:07:11.704Z,5.95
2023-04-29T20:10:16.380Z,6.28
2023-04-29T20:13:27.603Z,5.74
2023-04-29T20:16:35.044Z,5.76
2023-04-29T20:19:41.912Z,5.93
2023-04-29T20:22:46.704Z,5.56
2023-04-29T20:25:51.651Z,5.72
2023-04-29T20:28:58.273Z,5.59
2023-04-29T20:32:05.221Z,5.54
2023-04-29T20:35:27.880Z,5.80
2023-04-29T20:38:36.135Z,5.81
2023-04-29T20:41:40.363Z,5.85
2023-04-29T20:44:44.819Z,5.77
2023-04-29T20:47:49.266Z,5.63
2023-04-29T20:50:54.352Z,5.90
2023-04-29T20:54:03.388Z,5.67
2023-04-29T20:57:10.873Z,5.69
2023-04-29T21:00:16.932Z,5.52
2023-04-29T21:03:27.216Z,5.72
2023-04-29T21:06:32.951Z,5.67
2023-04-29T21:09:37.717Z,5.95
2023-04-29T21:12:45.384Z,5.65
2023-04-29T21:15:53.247Z,6.01
2023-04-29T21:18:57.567Z,5.72
2023-04-29T21:22:02.285Z,5.98
2023-04-29T21:25:07.150Z,6.15
2023-04-29T21:28:22.381Z,6.34
2023-04-29T21:31:27.260Z,6.42
2023-04-29T21:34:32.158Z,6.66
2023-04-29T21:37:36.406Z,6.25
2023-04-29T21:40:45.161Z,6.26
2023-04-29T21:43:50.404Z,6.30
2023-04-29T21:46:55.067Z,6.25
2023-04-29T21:50:00.159Z,6.28
2023-04-29T21:53:04.599Z,6.31
2023-04-29T21:56:11.803Z,6.48
2023-04-29T21:59:17.752Z,6.38
2023-04-29T22:02:38.733Z,6.59
2023-04-29T22:05:48.810Z,6.76
2023-04-29T22:08:53.699Z,6.29
2023-04-29T22:11:58.239Z,6.56
2023-04-29T22:15:03.402Z,6.44
2023-04-29T22:18:11.927Z,6.72
2023-04-29T22:21:32.494Z,6.83
2023-04-29T22:24:37.096Z,6.90
2023-04-29T22:27:41.679Z,6.80
2023-04-29T22:30:49.316Z,6.44
2023-04-29T22:33:54.092Z,6.56
2023-04-29T22:36:58.865Z,6.43
2023-04-29T22:40:03.640Z,6.83
2023-04-29T22:43:10.528Z,6.79
2023-04-29T22:46:15.193Z,6.58
2023-04-29T22:49:21.724Z,6.57
2023-04-29T22:52:27.898Z,6.64
2023-04-29T22:55:34.372Z,6.65
2023-04-29T22:58:38.419Z,6.46
2023-04-29T23:01:42.837Z,6.46
2023-04-29T23:05:08.913Z,6.04
2023-04-29T23:12:00.194Z,6.41
2023-04-29T23:15:09.053Z,6.66
2023-04-29T23:18:15.446Z,6.54
2023-04-29T23:21:23.073Z,6.69
2023-04-29T23:24:27.595Z,6.45
2023-04-29T23:27:32.254Z,6.55
2023-04-29T23:30:40.116Z,6.47
2023-04-29T23:33:47.010Z,6.37
2023-04-29T23:36:51.536Z,6.17
2023-04-29T23:39:58.680Z,6.56
2023-04-29T23:43:05.966Z,6.60
2023-04-29T23:46:11.115Z,6.61
2023-04-29T23:49:17.413Z,6.67
2023-04-29T23:52:21.656Z,6.69
2023-04-29T23:55:25.902Z,6.60
2023-04-29T23:58:30.749Z,6.51
